sensor_id;sensor_type;location;lat;lon;timestamp;pressure;altitude;pressure_sealevel;temperature;humidity
32083;BME280;18597;48.328;7.932;2022-12-07T00:00:29;99740.22;;;4.63;100.00
32083;BME280;18597;48.328;7.932;2022-12-07T00:02:55;99736.22;;;4.56;100.00
32083;BME280;18597;48.328;7.932;2022-12-07T00:05:21;99733.75;;;4.53;100.00
32083;BME280;18597;48.328;7.932;2022-12-07T00:07:46;99735.28;;;4.57;100.00
32083;BME280;18597;48.328;7.932;2022-12-07T00:10:12;99731.69;;;4.58;100.00
32083;BME280;18597;48.328;7.932;2022-12-07T00:12:38;99735.47;;;4.54;100.00
32083;BME280;18597;48.328;7.932;2022-12-07T00:15:05;99733.00;;;4.51;100.00
32083;BME280;18597;48.328;7.932;2022-12-07T00:17:31;99728.25;;;4.42;100.00
32083;BME280;18597;48.328;7.932;2022-12-07T00:19:57;99730.59;;;4.32;100.00
32083;BME280;18597;48.328;7.932;2022-12-07T00:22:22;99726.41;;;4.28;100.00
32083;BME280;18597;48.328;7.932;2022-12-07T00:24:48;99725.81;;;4.23;100.00
32083;BME280;18597;48.328;7.932;2022-12-07T00:27:14;99728.22;;;4.12;100.00
32083;BME280;18597;48.328;7.932;2022-12-07T00:29:40;99727.38;;;4.11;100.00
32083;BME280;18597;48.328;7.932;2022-12-07T00:32:05;99715.88;;;4.12;100.00
32083;BME280;18597;48.328;7.932;2022-12-07T00:34:31;99718.69;;;4.09;100.00
32083;BME280;18597;48.328;7.932;2022-12-07T00:36:57;99710.16;;;4.04;100.00
32083;BME280;18597;48.328;7.932;2022-12-07T00:39:23;99711.47;;;3.97;100.00
32083;BME280;18597;48.328;7.932;2022-12-07T00:41:48;99707.97;;;3.97;100.00
32083;BME280;18597;48.328;7.932;2022-12-07T00:44:14;99713.34;;;3.95;100.00
32083;BME280;18597;48.328;7.932;2022-12-07T00:46:40;99704.47;;;3.96;100.00
32083;BME280;18597;48.328;7.932;2022-12-07T00:49:06;99709.16;;;3.91;100.00
32083;BME280;18597;48.328;7.932;2022-12-07T00:51:31;99708.41;;;3.89;100.00
32083;BME280;18597;48.328;7.932;2022-12-07T00:53:57;99705.75;;;3.89;100.00
32083;BME280;18597;48.328;7.932;2022-12-07T00:56:27;99704.91;;;3.88;100.00
32083;BME280;18597;48.328;7.932;2022-12-07T00:58:57;99706.59;;;3.89;100.00
32083;BME280;18597;48.328;7.932;2022-12-07T01:01:26;99712.06;;;3.86;100.00
32083;BME280;18597;48.328;7.932;2022-12-07T01:03:52;99705.25;;;3.82;100.00
32083;BME280;18597;48.328;7.932;2022-12-07T01:06:20;99708.59;;;3.86;100.00
32083;BME280;18597;48.328;7.932;2022-12-07T01:08:47;99709.50;;;3.85;100.00
32083;BME280;18597;48.328;7.932;2022-12-07T01:11:16;99703.47;;;3.83;100.00
32083;BME280;18597;48.328;7.932;2022-12-07T01:13:43;99709.88;;;3.79;100.00
32083;BME280;18597;48.328;7.932;2022-12-07T01:16:13;99709.78;;;3.80;100.00
32083;BME280;18597;48.328;7.932;2022-12-07T01:18:40;99714.03;;;3.83;100.00
32083;BME280;18597;48.328;7.932;2022-12-07T01:21:13;99716.56;;;3.84;100.00
32083;BME280;18597;48.328;7.932;2022-12-07T01:23:39;99715.47;;;3.88;100.00
32083;BME280;18597;48.328;7.932;2022-12-07T01:26:10;99721.72;;;3.87;100.00
32083;BME280;18597;48.328;7.932;2022-12-07T01:28:37;99714.78;;;3.85;100.00
32083;BME280;18597;48.328;7.932;2022-12-07T01:31:06;99724.25;;;3.89;100.00
32083;BME280;18597;48.328;7.932;2022-12-07T01:33:35;99728.78;;;3.87;100.00
32083;BME280;18597;48.328;7.932;2022-12-07T01:36:31;99719.31;;;3.83;100.00
32083;BME280;18597;48.328;7.932;2022-12-07T01:39:00;99724.50;;;3.84;100.00
32083;BME280;18597;48.328;7.932;2022-12-07T01:41:30;99723.50;;;3.87;100.00
32083;BME280;18597;48.328;7.932;2022-12-07T01:44:22;99725.19;;;3.88;100.00
32083;BME280;18597;48.328;7.932;2022-12-07T01:46:55;99731.69;;;3.82;100.00
32083;BME280;18597;48.328;7.932;2022-12-07T01:49:44;99732.63;;;3.81;100.00
32083;BME280;18597;48.328;7.932;2022-12-07T01:52:31;99737.22;;;3.94;100.00
32083;BME280;18597;48.328;7.932;2022-12-07T01:55:04;99736.72;;;3.87;100.00
32083;BME280;18597;48.328;7.932;2022-12-07T01:57:34;99732.25;;;4.03;100.00
32083;BME280;18597;48.328;7.932;2022-12-07T02:00:00;99728.22;;;4.12;100.00
32083;BME280;18597;48.328;7.932;2022-12-07T02:02:30;99733.44;;;3.98;100.00
32083;BME280;18597;48.328;7.932;2022-12-07T02:05:01;99731.09;;;3.93;100.00
32083;BME280;18597;48.328;7.932;2022-12-07T02:07:29;99733.22;;;3.86;100.00
32083;BME280;18597;48.328;7.932;2022-12-07T02:09:55;99732.97;;;3.75;100.00
32083;BME280;18597;48.328;7.932;2022-12-07T02:12:22;99737.16;;;3.79;100.00
32083;BME280;18597;48.328;7.932;2022-12-07T02:14:50;99731.00;;;3.79;100.00
32083;BME280;18597;48.328;7.932;2022-12-07T02:17:30;99732.28;;;3.87;100.00
32083;BME280;18597;48.328;7.932;2022-12-07T02:23:48;99728.69;;;3.73;100.00
32083;BME280;18597;48.328;7.932;2022-12-07T02:27:02;99728.09;;;3.83;100.00
32083;BME280;18597;48.328;7.932;2022-12-07T02:29:45;99727.16;;;3.69;100.00
32083;BME280;18597;48.328;7.932;2022-12-07T02:35:37;99721.88;;;3.69;100.00
32083;BME280;18597;48.328;7.932;2022-12-07T02:38:16;99725.72;;;3.63;100.00
32083;BME280;18597;48.328;7.932;2022-12-07T02:41:26;99728.09;;;3.68;100.00
32083;BME280;18597;48.328;7.932;2022-12-07T02:43:57;99730.13;;;3.62;100.00
32083;BME280;18597;48.328;7.932;2022-12-07T02:46:31;99721.03;;;3.52;100.00
32083;BME280;18597;48.328;7.932;2022-12-07T02:48:59;99718.81;;;3.45;100.00
32083;BME280;18597;48.328;7.932;2022-12-07T02:51:25;99715.50;;;3.41;100.00
32083;BME280;18597;48.328;7.932;2022-12-07T02:53:54;99718.28;;;3.38;100.00
32083;BME280;18597;48.328;7.932;2022-12-07T03:02:46;99710.34;;;3.22;100.00
32083;BME280;18597;48.328;7.932;2022-12-07T03:05:55;99715.28;;;3.13;100.00
32083;BME280;18597;48.328;7.932;2022-12-07T03:11:51;99713.97;;;3.04;100.00
32083;BME280;18597;48.328;7.932;2022-12-07T03:14:26;99711.75;;;2.96;100.00
32083;BME280;18597;48.328;7.932;2022-12-07T03:17:03;99709.59;;;2.87;100.00
32083;BME280;18597;48.328;7.932;2022-12-07T03:19:32;99704.38;;;2.86;100.00
32083;BME280;18597;48.328;7.932;2022-12-07T03:22:05;99706.88;;;2.89;100.00
32083;BME280;18597;48.328;7.932;2022-12-07T03:24:39;99699.91;;;2.88;100.00
32083;BME280;18597;48.328;7.932;2022-12-07T03:27:16;99696.47;;;2.86;100.00
32083;BME280;18597;48.328;7.932;2022-12-07T03:29:53;99683.66;;;2.95;100.00
32083;BME280;18597;48.328;7.932;2022-12-07T03:32:40;99692.63;;;2.75;100.00
32083;BME280;18597;48.328;7.932;2022-12-07T03:35:26;99683.03;;;2.90;100.00
32083;BME280;18597;48.328;7.932;2022-12-07T03:38:00;99690.63;;;2.96;100.00
32083;BME280;18597;48.328;7.932;2022-12-07T03:40:39;99697.50;;;2.83;100.00
32083;BME280;18597;48.328;7.932;2022-12-07T03:43:08;99704.88;;;2.76;100.00
32083;BME280;18597;48.328;7.932;2022-12-07T03:45:43;99693.19;;;2.98;100.00
32083;BME280;18597;48.328;7.932;2022-12-07T03:48:24;99697.31;;;2.86;100.00
32083;BME280;18597;48.328;7.932;2022-12-07T03:50:59;99702.00;;;2.81;100.00
32083;BME280;18597;48.328;7.932;2022-12-07T03:53:36;99691.28;;;2.84;100.00
32083;BME280;18597;48.328;7.932;2022-12-07T03:56:05;99694.78;;;2.85;100.00
32083;BME280;18597;48.328;7.932;2022-12-07T03:58:32;99690.34;;;2.85;100.00
32083;BME280;18597;48.328;7.932;2022-12-07T04:00:59;99698.97;;;2.89;100.00
32083;BME280;18597;48.328;7.932;2022-12-07T04:03:25;99695.31;;;2.91;100.00
32083;BME280;18597;48.328;7.932;2022-12-07T04:05:51;99689.53;;;3.00;100.00
32083;BME280;18597;48.328;7.932;2022-12-07T04:08:17;99691.63;;;2.94;100.00
32083;BME280;18597;48.328;7.932;2022-12-07T04:10:43;99693.44;;;2.93;100.00
32083;BME280;18597;48.328;7.932;2022-12-07T04:13:08;99691.97;;;2.88;100.00
32083;BME280;18597;48.328;7.932;2022-12-07T04:15:34;99697.41;;;2.85;100.00
32083;BME280;18597;48.328;7.932;2022-12-07T04:18:00;99694.16;;;2.79;100.00
32083;BME280;18597;48.328;7.932;2022-12-07T04:20:26;99690.66;;;2.79;100.00
32083;BME280;18597;48.328;7.932;2022-12-07T04:22:52;99695.16;;;2.77;100.00
32083;BME280;18597;48.328;7.932;2022-12-07T04:25:18;99686.94;;;2.83;100.00
32083;BME280;18597;48.328;7.932;2022-12-07T04:27:43;99686.81;;;2.69;100.00
32083;BME280;18597;48.328;7.932;2022-12-07T04:30:10;99682.66;;;2.65;100.00
32083;BME280;18597;48.328;7.932;2022-12-07T04:32:36;99679.59;;;2.55;100.00
32083;BME280;18597;48.328;7.932;2022-12-07T04:35:02;99681.88;;;2.45;100.00
32083;BME280;18597;48.328;7.932;2022-12-07T04:37:28;99682.50;;;2.50;100.00
32083;BME280;18597;48.328;7.932;2022-12-07T04:39:54;99685.97;;;2.68;100.00
32083;BME280;18597;48.328;7.932;2022-12-07T04:42:20;99692.31;;;2.82;100.00
32083;BME280;18597;48.328;7.932;2022-12-07T04:44:46;99694.50;;;2.56;100.00
32083;BME280;18597;48.328;7.932;2022-12-07T04:47:12;99692.97;;;2.52;100.00
32083;BME280;18597;48.328;7.932;2022-12-07T04:49:37;99697.22;;;2.55;100.00
32083;BME280;18597;48.328;7.932;2022-12-07T04:52:03;99692.25;;;2.48;100.00
32083;BME280;18597;48.328;7.932;2022-12-07T04:54:29;99700.34;;;2.45;100.00
32083;BME280;18597;48.328;7.932;2022-12-07T04:56:55;99704.84;;;2.43;100.00
32083;BME280;18597;48.328;7.932;2022-12-07T04:59:21;99700.34;;;2.45;100.00
32083;BME280;18597;48.328;7.932;2022-12-07T05:01:47;99705.13;;;2.55;100.00
32083;BME280;18597;48.328;7.932;2022-12-07T05:04:13;99701.50;;;2.40;100.00
32083;BME280;18597;48.328;7.932;2022-12-07T05:06:39;99694.75;;;2.52;100.00
32083;BME280;18597;48.328;7.932;2022-12-07T05:09:05;99682.94;;;2.41;100.00
32083;BME280;18597;48.328;7.932;2022-12-07T05:11:31;99684.91;;;2.20;100.00
32083;BME280;18597;48.328;7.932;2022-12-07T05:14:09;99684.69;;;2.42;100.00
32083;BME280;18597;48.328;7.932;2022-12-07T05:16:37;99688.84;;;2.46;100.00
32083;BME280;18597;48.328;7.932;2022-12-07T05:19:03;99688.69;;;2.32;100.00
32083;BME280;18597;48.328;7.932;2022-12-07T05:21:30;99691.50;;;2.12;100.00
32083;BME280;18597;48.328;7.932;2022-12-07T05:23:56;99689.56;;;2.15;100.00
32083;BME280;18597;48.328;7.932;2022-12-07T05:26:22;99687.78;;;1.99;100.00
32083;BME280;18597;48.328;7.932;2022-12-07T05:28:53;99689.75;;;1.93;100.00
32083;BME280;18597;48.328;7.932;2022-12-07T05:31:21;99694.72;;;1.82;100.00
32083;BME280;18597;48.328;7.932;2022-12-07T05:33:47;99690.78;;;1.91;100.00
32083;BME280;18597;48.328;7.932;2022-12-07T05:36:13;99682.06;;;1.89;100.00
32083;BME280;18597;48.328;7.932;2022-12-07T05:38:40;99689.59;;;1.79;100.00
32083;BME280;18597;48.328;7.932;2022-12-07T05:41:07;99694.41;;;1.88;100.00
32083;BME280;18597;48.328;7.932;2022-12-07T05:43:53;99692.41;;;1.93;100.00
32083;BME280;18597;48.328;7.932;2022-12-07T05:46:19;99692.47;;;1.92;100.00
32083;BME280;18597;48.328;7.932;2022-12-07T05:48:45;99701.44;;;1.88;100.00
32083;BME280;18597;48.328;7.932;2022-12-07T05:51:11;99701.06;;;1.95;100.00
32083;BME280;18597;48.328;7.932;2022-12-07T05:53:37;99706.38;;;2.30;100.00
32083;BME280;18597;48.328;7.932;2022-12-07T05:56:03;99702.94;;;2.11;100.00
32083;BME280;18597;48.328;7.932;2022-12-07T05:58:29;99701.97;;;2.13;100.00
32083;BME280;18597;48.328;7.932;2022-12-07T06:01:14;99701.28;;;2.27;100.00
32083;BME280;18597;48.328;7.932;2022-12-07T06:03:40;99705.84;;;2.23;100.00
32083;BME280;18597;48.328;7.932;2022-12-07T06:06:06;99718.06;;;1.90;100.00
32083;BME280;18597;48.328;7.932;2022-12-07T06:08:32;99711.44;;;1.81;100.00
32083;BME280;18597;48.328;7.932;2022-12-07T06:10:58;99712.06;;;1.86;100.00
32083;BME280;18597;48.328;7.932;2022-12-07T06:13:44;99708.47;;;1.70;100.00
32083;BME280;18597;48.328;7.932;2022-12-07T06:16:09;99712.81;;;1.71;100.00
32083;BME280;18597;48.328;7.932;2022-12-07T06:18:35;99714.59;;;1.71;100.00
32083;BME280;18597;48.328;7.932;2022-12-07T06:21:01;99724.44;;;1.67;100.00
32083;BME280;18597;48.328;7.932;2022-12-07T06:23:27;99727.41;;;1.78;100.00
32083;BME280;18597;48.328;7.932;2022-12-07T06:25:53;99724.44;;;1.67;100.00
32083;BME280;18597;48.328;7.932;2022-12-07T06:28:19;99725.00;;;1.55;100.00
32083;BME280;18597;48.328;7.932;2022-12-07T06:30:44;99721.88;;;1.47;100.00
32083;BME280;18597;48.328;7.932;2022-12-07T06:33:10;99729.94;;;1.44;100.00
32083;BME280;18597;48.328;7.932;2022-12-07T06:35:36;99726.66;;;1.38;100.00
32083;BME280;18597;48.328;7.932;2022-12-07T06:38:02;99730.47;;;1.50;100.00
32083;BME280;18597;48.328;7.932;2022-12-07T06:40:28;99736.94;;;1.43;100.00
32083;BME280;18597;48.328;7.932;2022-12-07T06:42:53;99735.81;;;1.30;100.00
32083;BME280;18597;48.328;7.932;2022-12-07T06:45:19;99738.22;;;1.34;100.00
32083;BME280;18597;48.328;7.932;2022-12-07T06:47:45;99743.66;;;1.31;100.00
32083;BME280;18597;48.328;7.932;2022-12-07T06:50:12;99749.03;;;1.28;100.00
32083;BME280;18597;48.328;7.932;2022-12-07T06:52:38;99731.41;;;1.30;100.00
32083;BME280;18597;48.328;7.932;2022-12-07T06:55:04;99733.66;;;1.19;100.00
32083;BME280;18597;48.328;7.932;2022-12-07T06:57:30;99745.47;;;1.10;100.00
32083;BME280;18597;48.328;7.932;2022-12-07T06:59:56;99740.34;;;1.26;100.00
32083;BME280;18597;48.328;7.932;2022-12-07T07:02:22;99752.75;;;1.43;100.00
32083;BME280;18597;48.328;7.932;2022-12-07T07:04:48;99741.78;;;1.33;100.00
32083;BME280;18597;48.328;7.932;2022-12-07T07:07:14;99739.94;;;1.35;100.00
32083;BME280;18597;48.328;7.932;2022-12-07T07:09:39;99744.69;;;1.27;100.00
32083;BME280;18597;48.328;7.932;2022-12-07T07:12:05;99747.47;;;1.24;100.00
32083;BME280;18597;48.328;7.932;2022-12-07T07:14:31;99746.84;;;1.38;100.00
32083;BME280;18597;48.328;7.932;2022-12-07T07:16:58;99739.72;;;1.40;100.00
32083;BME280;18597;48.328;7.932;2022-12-07T07:19:24;99739.16;;;1.33;100.00
32083;BME280;18597;48.328;7.932;2022-12-07T07:21:50;99738.88;;;1.39;100.00
32083;BME280;18597;48.328;7.932;2022-12-07T07:24:15;99737.81;;;1.62;100.00
32083;BME280;18597;48.328;7.932;2022-12-07T07:26:42;99745.34;;;1.70;100.00
32083;BME280;18597;48.328;7.932;2022-12-07T07:29:08;99741.50;;;1.77;100.00
32083;BME280;18597;48.328;7.932;2022-12-07T07:31:34;99742.91;;;1.84;100.00
32083;BME280;18597;48.328;7.932;2022-12-07T07:34:01;99746.03;;;1.92;100.00
32083;BME280;18597;48.328;7.932;2022-12-07T07:36:27;99748.44;;;1.97;100.00
32083;BME280;18597;48.328;7.932;2022-12-07T07:38:52;99752.13;;;2.12;100.00
32083;BME280;18597;48.328;7.932;2022-12-07T07:41:18;99758.63;;;2.22;100.00
32083;BME280;18597;48.328;7.932;2022-12-07T07:43:44;99746.78;;;2.31;100.00
32083;BME280;18597;48.328;7.932;2022-12-07T07:46:10;99748.81;;;2.43;100.00
32083;BME280;18597;48.328;7.932;2022-12-07T07:48:36;99749.44;;;2.65;100.00
32083;BME280;18597;48.328;7.932;2022-12-07T07:51:06;99747.25;;;2.73;100.00
32083;BME280;18597;48.328;7.932;2022-12-07T07:53:32;99753.94;;;2.81;100.00
32083;BME280;18597;48.328;7.932;2022-12-07T07:55:58;99762.00;;;2.60;100.00
32083;BME280;18597;48.328;7.932;2022-12-07T07:58:24;99763.16;;;2.55;100.00
32083;BME280;18597;48.328;7.932;2022-12-07T08:00:51;99762.47;;;2.68;100.00
32083;BME280;18597;48.328;7.932;2022-12-07T08:03:17;99764.34;;;2.66;100.00
32083;BME280;18597;48.328;7.932;2022-12-07T08:05:43;99757.56;;;2.78;100.00
32083;BME280;18597;48.328;7.932;2022-12-07T08:08:09;99768.13;;;2.61;100.00
32083;BME280;18597;48.328;7.932;2022-12-07T08:10:34;99765.97;;;2.52;100.00
32083;BME280;18597;48.328;7.932;2022-12-07T08:13:01;99773.94;;;2.50;100.00
32083;BME280;18597;48.328;7.932;2022-12-07T08:15:46;99766.94;;;2.49;100.00
32083;BME280;18597;48.328;7.932;2022-12-07T08:18:14;99769.53;;;2.68;100.00
32083;BME280;18597;48.328;7.932;2022-12-07T08:20:41;99767.13;;;2.81;100.00
32083;BME280;18597;48.328;7.932;2022-12-07T08:23:08;99767.72;;;3.03;100.00
32083;BME280;18597;48.328;7.932;2022-12-07T08:25:36;99761.84;;;3.14;100.00
32083;BME280;18597;48.328;7.932;2022-12-07T08:28:02;99763.06;;;3.24;100.00
32083;BME280;18597;48.328;7.932;2022-12-07T08:30:28;99758.41;;;3.45;100.00
32083;BME280;18597;48.328;7.932;2022-12-07T08:32:55;99766.78;;;3.69;100.00
32083;BME280;18597;48.328;7.932;2022-12-07T08:35:21;99772.59;;;3.91;100.00
32083;BME280;18597;48.328;7.932;2022-12-07T08:37:47;99770.53;;;4.12;100.00
32083;BME280;18597;48.328;7.932;2022-12-07T08:40:14;99768.13;;;4.23;100.00
32083;BME280;18597;48.328;7.932;2022-12-07T08:42:42;99761.44;;;4.48;100.00
32083;BME280;18597;48.328;7.932;2022-12-07T08:45:13;99759.13;;;4.71;100.00
32083;BME280;18597;48.328;7.932;2022-12-07T08:47:47;99758.00;;;4.76;100.00
32083;BME280;18597;48.328;7.932;2022-12-07T08:50:14;99758.78;;;5.06;100.00
32083;BME280;18597;48.328;7.932;2022-12-07T08:52:41;99757.78;;;4.34;100.00
32083;BME280;18597;48.328;7.932;2022-12-07T08:55:10;99762.22;;;4.64;100.00
32083;BME280;18597;48.328;7.932;2022-12-07T08:57:37;99761.25;;;4.95;100.00
32083;BME280;18597;48.328;7.932;2022-12-07T09:00:05;99750.97;;;5.19;100.00
32083;BME280;18597;48.328;7.932;2022-12-07T09:02:31;99751.25;;;5.28;100.00
32083;BME280;18597;48.328;7.932;2022-12-07T09:04:57;99755.22;;;5.36;100.00
32083;BME280;18597;48.328;7.932;2022-12-07T09:07:24;99750.38;;;5.28;100.00
32083;BME280;18597;48.328;7.932;2022-12-07T09:10:15;99754.47;;;5.34;100.00
32083;BME280;18597;48.328;7.932;2022-12-07T09:12:41;99766.28;;;4.99;100.00
32083;BME280;18597;48.328;7.932;2022-12-07T09:15:07;99755.94;;;4.51;100.00
32083;BME280;18597;48.328;7.932;2022-12-07T09:17:34;99761.03;;;4.69;100.00
32083;BME280;18597;48.328;7.932;2022-12-07T09:20:02;99759.84;;;5.04;100.00
32083;BME280;18597;48.328;7.932;2022-12-07T09:22:29;99760.13;;;5.27;100.00
32083;BME280;18597;48.328;7.932;2022-12-07T09:24:57;99772.63;;;5.40;100.00
32083;BME280;18597;48.328;7.932;2022-12-07T09:27:24;99766.00;;;5.18;100.00
32083;BME280;18597;48.328;7.932;2022-12-07T09:29:49;99766.00;;;5.18;100.00
32083;BME280;18597;48.328;7.932;2022-12-07T09:32:15;99764.78;;;5.24;100.00
32083;BME280;18597;48.328;7.932;2022-12-07T09:34:41;99756.75;;;5.40;100.00
32083;BME280;18597;48.328;7.932;2022-12-07T09:37:07;99756.91;;;5.51;100.00
32083;BME280;18597;48.328;7.932;2022-12-07T09:39:34;99757.38;;;5.57;100.00
32083;BME280;18597;48.328;7.932;2022-12-07T09:42:04;99757.09;;;5.62;100.00
32083;BME280;18597;48.328;7.932;2022-12-07T09:44:32;99751.94;;;5.73;100.00
32083;BME280;18597;48.328;7.932;2022-12-07T09:46:58;99752.78;;;5.88;100.00
32083;BME280;18597;48.328;7.932;2022-12-07T09:49:28;99751.47;;;5.95;100.00
32083;BME280;18597;48.328;7.932;2022-12-07T09:54:54;99747.47;;;6.02;100.00
32083;BME280;18597;48.328;7.932;2022-12-07T09:57:30;99746.97;;;6.10;100.00
32083;BME280;18597;48.328;7.932;2022-12-07T10:00:03;99755.38;;;6.17;100.00
32083;BME280;18597;48.328;7.932;2022-12-07T10:02:37;99743.91;;;6.16;100.00
32083;BME280;18597;48.328;7.932;2022-12-07T10:05:07;99739.41;;;6.31;100.00
32083;BME280;18597;48.328;7.932;2022-12-07T10:07:36;99741.34;;;6.42;100.00
32083;BME280;18597;48.328;7.932;2022-12-07T10:10:06;99739.63;;;6.28;100.00
32083;BME280;18597;48.328;7.932;2022-12-07T10:12:57;99731.81;;;6.52;100.00
32083;BME280;18597;48.328;7.932;2022-12-07T10:15:47;99729.06;;;6.53;100.00
32083;BME280;18597;48.328;7.932;2022-12-07T10:18:37;99729.16;;;6.64;95.99
32083;BME280;18597;48.328;7.932;2022-12-07T10:21:21;99730.06;;;6.65;98.52
32083;BME280;18597;48.328;7.932;2022-12-07T10:26:51;99716.25;;;6.20;98.83
32083;BME280;18597;48.328;7.932;2022-12-07T10:29:27;99714.06;;;6.39;99.09
32083;BME280;18597;48.328;7.932;2022-12-07T10:34:49;99711.22;;;6.43;95.91
32083;BME280;18597;48.328;7.932;2022-12-07T10:37:19;99714.34;;;6.22;100.00
32083;BME280;18597;48.328;7.932;2022-12-07T10:39:55;99707.34;;;6.34;100.00
32083;BME280;18597;48.328;7.932;2022-12-07T10:45:14;99685.88;;;6.77;95.07
32083;BME280;18597;48.328;7.932;2022-12-07T10:51:20;99690.31;;;6.51;87.77
32083;BME280;18597;48.328;7.932;2022-12-07T11:00:39;99668.75;;;7.06;86.58
32083;BME280;18597;48.328;7.932;2022-12-07T11:03:37;99670.00;;;7.26;87.60
32083;BME280;18597;48.328;7.932;2022-12-07T11:15:29;99658.34;;;7.53;85.17
32083;BME280;18597;48.328;7.932;2022-12-07T11:18:22;99656.53;;;7.53;87.93
32083;BME280;18597;48.328;7.932;2022-12-07T11:24:15;99648.69;;;7.51;88.12
32083;BME280;18597;48.328;7.932;2022-12-07T11:27:39;99648.91;;;7.48;87.32
32083;BME280;18597;48.328;7.932;2022-12-07T11:30:18;99649.06;;;7.34;89.01
32083;BME280;18597;48.328;7.932;2022-12-07T11:36:43;99642.75;;;6.73;97.84
32083;BME280;18597;48.328;7.932;2022-12-07T11:39:35;99640.53;;;6.67;99.10
32083;BME280;18597;48.328;7.932;2022-12-07T11:42:12;99631.59;;;6.55;99.86
32083;BME280;18597;48.328;7.932;2022-12-07T11:47:41;99642.75;;;6.35;96.14
32083;BME280;18597;48.328;7.932;2022-12-07T11:50:52;99626.63;;;6.51;95.04
32083;BME280;18597;48.328;7.932;2022-12-07T11:53:28;99617.91;;;6.61;89.52
32083;BME280;18597;48.328;7.932;2022-12-07T11:59:06;99622.25;;;6.75;80.94
32083;BME280;18597;48.328;7.932;2022-12-07T12:04:58;99616.25;;;7.46;82.99
32083;BME280;18597;48.328;7.932;2022-12-07T12:07:28;99617.13;;;7.71;83.24
32083;BME280;18597;48.328;7.932;2022-12-07T12:10:02;99610.16;;;7.81;83.94
32083;BME280;18597;48.328;7.932;2022-12-07T12:15:58;99598.97;;;8.00;78.03
32083;BME280;18597;48.328;7.932;2022-12-07T12:22:06;99588.53;;;7.86;77.40
32083;BME280;18597;48.328;7.932;2022-12-07T12:24:39;99587.91;;;7.82;77.25
32083;BME280;18597;48.328;7.932;2022-12-07T12:27:10;99582.34;;;7.85;77.74
32083;BME280;18597;48.328;7.932;2022-12-07T12:29:43;99582.47;;;7.84;77.91
32083;BME280;18597;48.328;7.932;2022-12-07T12:32:40;99583.69;;;7.79;80.15
32083;BME280;18597;48.328;7.932;2022-12-07T12:38:31;99573.50;;;7.73;80.24
32083;BME280;18597;48.328;7.932;2022-12-07T12:41:01;99576.19;;;7.85;80.84
32083;BME280;18597;48.328;7.932;2022-12-07T12:43:49;99569.81;;;7.87;79.76
32083;BME280;18597;48.328;7.932;2022-12-07T12:49:34;99568.59;;;7.91;78.15
32083;BME280;18597;48.328;7.932;2022-12-07T12:55:13;99567.59;;;7.81;81.80
32083;BME280;18597;48.328;7.932;2022-12-07T12:57:42;99568.22;;;7.85;77.82
32083;BME280;18597;48.328;7.932;2022-12-07T13:00:22;99562.47;;;7.67;76.98
32083;BME280;18597;48.328;7.932;2022-12-07T13:02:58;99556.53;;;7.39;76.41
32083;BME280;18597;48.328;7.932;2022-12-07T13:05:29;99556.69;;;7.25;80.12
32083;BME280;18597;48.328;7.932;2022-12-07T13:08:18;99560.38;;;7.11;82.29
32083;BME280;18597;48.328;7.932;2022-12-07T13:10:48;99553.22;;;6.88;78.86
32083;BME280;18597;48.328;7.932;2022-12-07T13:18:45;99535.31;;;6.40;87.82
32083;BME280;18597;48.328;7.932;2022-12-07T13:26:42;99539.56;;;6.18;89.12
32083;BME280;18597;48.328;7.932;2022-12-07T13:29:23;99537.31;;;6.11;90.72
32083;BME280;18597;48.328;7.932;2022-12-07T13:31:52;99532.47;;;6.05;92.19
32083;BME280;18597;48.328;7.932;2022-12-07T13:34:40;99527.13;;;5.93;97.37
32083;BME280;18597;48.328;7.932;2022-12-07T13:37:28;99535.53;;;5.72;100.00
32083;BME280;18597;48.328;7.932;2022-12-07T13:40:12;99521.00;;;5.92;100.00
32083;BME280;18597;48.328;7.932;2022-12-07T13:42:44;99532.88;;;5.60;100.00
32083;BME280;18597;48.328;7.932;2022-12-07T13:45:28;99528.50;;;5.46;100.00
32083;BME280;18597;48.328;7.932;2022-12-07T13:48:42;99525.22;;;5.28;100.00
32083;BME280;18597;48.328;7.932;2022-12-07T13:51:22;99522.34;;;5.18;100.00
32083;BME280;18597;48.328;7.932;2022-12-07T13:53:55;99520.44;;;5.20;100.00
32083;BME280;18597;48.328;7.932;2022-12-07T13:56:32;99529.44;;;5.18;100.00
32083;BME280;18597;48.328;7.932;2022-12-07T13:58:59;99523.94;;;5.21;100.00
32083;BME280;18597;48.328;7.932;2022-12-07T14:01:26;99526.47;;;5.37;100.00
32083;BME280;18597;48.328;7.932;2022-12-07T14:03:52;99527.72;;;5.44;100.00
32083;BME280;18597;48.328;7.932;2022-12-07T14:06:26;99522.25;;;5.47;100.00
32083;BME280;18597;48.328;7.932;2022-12-07T14:09:26;99520.88;;;5.54;100.00
32083;BME280;18597;48.328;7.932;2022-12-07T14:11:55;99523.88;;;5.62;100.00
32083;BME280;18597;48.328;7.932;2022-12-07T14:14:30;99523.28;;;5.84;100.00
32083;BME280;18597;48.328;7.932;2022-12-07T14:17:19;99509.69;;;5.76;100.00
32083;BME280;18597;48.328;7.932;2022-12-07T14:19:53;99518.50;;;5.76;100.00
32083;BME280;18597;48.328;7.932;2022-12-07T14:25:17;99511.38;;;5.77;100.00
32083;BME280;18597;48.328;7.932;2022-12-07T14:27:55;99523.34;;;5.70;100.00
32083;BME280;18597;48.328;7.932;2022-12-07T14:30:25;99516.88;;;5.61;100.00
32083;BME280;18597;48.328;7.932;2022-12-07T14:32:57;99516.25;;;5.70;100.00
32083;BME280;18597;48.328;7.932;2022-12-07T14:35:23;99510.72;;;5.61;100.00
32083;BME280;18597;48.328;7.932;2022-12-07T14:37:49;99513.13;;;5.51;100.00
32083;BME280;18597;48.328;7.932;2022-12-07T14:40:24;99500.97;;;5.61;100.00
32083;BME280;18597;48.328;7.932;2022-12-07T14:42:55;99502.66;;;5.62;100.00
32083;BME280;18597;48.328;7.932;2022-12-07T14:45:23;99511.75;;;5.58;100.00
32083;BME280;18597;48.328;7.932;2022-12-07T14:47:49;99506.13;;;5.50;100.00
32083;BME280;18597;48.328;7.932;2022-12-07T14:50:18;99505.78;;;5.42;100.00
32083;BME280;18597;48.328;7.932;2022-12-07T14:52:51;99507.03;;;5.36;100.00
32083;BME280;18597;48.328;7.932;2022-12-07T14:55:29;99511.69;;;5.33;100.00
32083;BME280;18597;48.328;7.932;2022-12-07T14:57:56;99510.13;;;5.30;100.00